Statia Express — V7TT3 — position and weather

sailwx.info

Track history (hours):
 
Tides and Currents Weather Stations Pressure Air Temp Water Temp Dewpoint Dewpoint Depression Visibility Wind Speed Wind Dir Waves Ship Positions

Statia Express

Last reported at 2014-Oct-07 23:27 UTC. Time now 2014-Oct-21 13:41 UTC.
Position N 17°46' W 063°05'.
Warning: this ship's position is 13 days out of date.

Length 28 m; draft 4.1 m.

Type: Tug. MMSI: 538003879.

Date/timePositionNaut miles runAvg speedWind from/ knotsBaromVisibWave heightAir tempDewpointWater temp
2014-Oct-07 23:27N 17°46' W 063°05'14 6.6
2014-Oct-07 21:17N 18°00' W 063°04'1 0.1
2014-Oct-07 11:33N 18°01' W 063°03'0 0.0
2014-Oct-07 10:14N 18°01' W 063°03'0 0.0
2014-Oct-07 09:33N 18°01' W 063°03'0 0.0
2014-Oct-07 07:06N 18°01' W 063°03'0 0.0
2014-Oct-06 19:11N 18°01' W 063°03'0 0.0
2014-Oct-06 18:19N 18°01' W 063°03'0 0.1
2014-Oct-06 13:24N 18°01' W 063°03'0 0.4
2014-Oct-06 12:11N 18°01' W 063°03'0 0.0
2014-Oct-06 11:19N 18°01' W 063°03'0 0.0
2014-Oct-06 10:12N 18°01' W 063°03'0 0.0
2014-Oct-06 09:24N 18°01' W 063°03'0 0.0
2014-Oct-06 08:31N 18°01' W 063°03'0 0.0
2014-Oct-06 07:32N 18°01' W 063°03'0 0.0
2014-Oct-06 06:32N 18°01' W 063°03'0 0.0
2014-Oct-06 05:28N 18°01' W 063°03'0 0.0
2014-Oct-06 02:11N 18°01' W 063°03'0 0.6
2014-Oct-06 01:18N 18°01' W 063°03'0 0.0
2014-Oct-06 00:33N 18°01' W 063°03'0 0.0
2014-Oct-05 23:16N 18°01' W 063°03'0 0.0
2014-Oct-05 21:04N 18°01' W 063°03'0 0.1
2014-Oct-05 19:33N 18°00' W 063°03'0 0.0
2014-Oct-05 13:18N 18°00' W 063°03'0 0.0
2014-Oct-05 12:18N 18°00' W 063°03'0 0.0
2014-Oct-05 10:33N 18°00' W 063°03'0 0.0
2014-Oct-05 09:29N 18°00' W 063°03'0 0.0
2014-Oct-05 08:18N 18°00' W 063°03'1 0.2
2014-Oct-05 04:33N 18°01' W 063°03'0 0.0
2014-Oct-05 02:18N 18°01' W 063°03'1 0.3
2014-Oct-05 00:19N 18°00' W 063°04'2 2.4
2014-Oct-04 23:25N 17°60' W 063°06'5 5.3
2014-Oct-04 22:33N 17°55' W 063°05'7 6.4
2014-Oct-04 21:24N 17°48' W 063°04'12 0.4
2014-Oct-03 17:26N 17°41' W 063°15'  
2014-Sep-29 18:10N 17°41' W 063°13'  
Track history (hours):
 
Tides and Currents Weather Stations Pressure Air Temp Water Temp Dewpoint Dewpoint Depression Visibility Wind Speed Wind Dir Waves Ship Positions

Statia Express

Last reported at 2014-Oct-07 23:27 UTC. Time now 2014-Oct-21 13:41 UTC.
Position N 17°46' W 063°05'.
Warning: this ship's position is 13 days out of date.

Length 28 m; draft 4.1 m.

Type: Tug. MMSI: 538003879.

Date/timePositionNaut miles runAvg speedWind from/ knotsBaromVisibWave heightAir tempDewpointWater temp
2014-Oct-07 23:27N 17°46' W 063°05'14 6.6
2014-Oct-07 21:17N 18°00' W 063°04'1 0.1
2014-Oct-07 11:33N 18°01' W 063°03'0 0.0
2014-Oct-07 10:14N 18°01' W 063°03'0 0.0
2014-Oct-07 09:33N 18°01' W 063°03'0 0.0
2014-Oct-07 07:06N 18°01' W 063°03'0 0.0
2014-Oct-06 19:11N 18°01' W 063°03'0 0.0
2014-Oct-06 18:19N 18°01' W 063°03'0 0.1
2014-Oct-06 13:24N 18°01' W 063°03'0 0.4
2014-Oct-06 12:11N 18°01' W 063°03'0 0.0
2014-Oct-06 11:19N 18°01' W 063°03'0 0.0
2014-Oct-06 10:12N 18°01' W 063°03'0 0.0
2014-Oct-06 09:24N 18°01' W 063°03'0 0.0
2014-Oct-06 08:31N 18°01' W 063°03'0 0.0
2014-Oct-06 07:32N 18°01' W 063°03'0 0.0
2014-Oct-06 06:32N 18°01' W 063°03'0 0.0
2014-Oct-06 05:28N 18°01' W 063°03'0 0.0
2014-Oct-06 02:11N 18°01' W 063°03'0 0.6
2014-Oct-06 01:18N 18°01' W 063°03'0 0.0
2014-Oct-06 00:33N 18°01' W 063°03'0 0.0
2014-Oct-05 23:16N 18°01' W 063°03'0 0.0
2014-Oct-05 21:04N 18°01' W 063°03'0 0.1
2014-Oct-05 19:33N 18°00' W 063°03'0 0.0
2014-Oct-05 13:18N 18°00' W 063°03'0 0.0
2014-Oct-05 12:18N 18°00' W 063°03'0 0.0
2014-Oct-05 10:33N 18°00' W 063°03'0 0.0
2014-Oct-05 09:29N 18°00' W 063°03'0 0.0
2014-Oct-05 08:18N 18°00' W 063°03'1 0.2
2014-Oct-05 04:33N 18°01' W 063°03'0 0.0
2014-Oct-05 02:18N 18°01' W 063°03'1 0.3
2014-Oct-05 00:19N 18°00' W 063°04'2 2.4
2014-Oct-04 23:25N 17°60' W 063°06'5 5.3
2014-Oct-04 22:33N 17°55' W 063°05'7 6.4
2014-Oct-04 21:24N 17°48' W 063°04'12 0.4
2014-Oct-03 17:26N 17°41' W 063°15'  
2014-Sep-29 18:10N 17°41' W 063°13'  

Dump ship's entire track history